createdAt,value
2018-12-26T00:00:31.209Z,16.43
2018-12-26T00:03:01.074Z,16.00
2018-12-26T00:05:30.725Z,21.67
2018-12-26T00:08:00.761Z,22.57
2018-12-26T00:10:30.495Z,20.23
2018-12-26T00:12:59.762Z,20.10
2018-12-26T00:15:28.613Z,18.17
2018-12-26T00:17:57.945Z,16.77
2018-12-26T00:20:27.583Z,13.27
2018-12-26T00:22:56.429Z,16.37
2018-12-26T00:25:25.997Z,16.53
2018-12-26T00:27:54.820Z,16.97
2018-12-26T00:30:24.264Z,18.00
2018-12-26T00:32:53.752Z,17.83
2018-12-26T00:35:23.685Z,17.97
2018-12-26T00:37:53.277Z,15.13
2018-12-26T00:40:22.211Z,16.13
2018-12-26T00:42:51.644Z,23.27
2018-12-26T00:45:20.815Z,26.23
2018-12-26T00:47:49.693Z,18.97
2018-12-26T00:50:18.986Z,26.10
2018-12-26T00:52:47.916Z,22.37
2018-12-26T00:55:16.978Z,133.00
2018-12-26T00:57:46.235Z,24.83
2018-12-26T01:00:15.190Z,29.33
2018-12-26T01:02:44.627Z,53.93
2018-12-26T01:05:14.438Z,29.17
2018-12-26T01:07:43.715Z,23.57
2018-12-26T01:10:12.881Z,22.80
2018-12-26T01:12:42.076Z,18.60
2018-12-26T01:15:11.290Z,18.83
2018-12-26T01:17:40.883Z,24.10
2018-12-26T01:20:09.964Z,31.27
2018-12-26T01:22:39.106Z,23.90
2018-12-26T01:25:08.101Z,21.70
2018-12-26T01:27:37.028Z,24.10
2018-12-26T01:30:06.094Z,24.33
2018-12-26T01:32:35.281Z,36.67
2018-12-26T01:35:04.199Z,44.67
2018-12-26T01:37:33.129Z,90.73
2018-12-26T01:40:01.972Z,60.03
2018-12-26T01:42:30.873Z,62.33
2018-12-26T01:45:00.453Z,71.67
2018-12-26T01:47:29.941Z,58.07
2018-12-26T01:49:59.128Z,51.17
2018-12-26T01:52:28.361Z,82.37
2018-12-26T01:54:57.604Z,91.73
2018-12-26T01:57:27.044Z,105.97
2018-12-26T01:59:56.245Z,56.50
2018-12-26T02:02:25.603Z,140.53
2018-12-26T02:04:54.850Z,458.13
2018-12-26T02:07:24.157Z,152.80
2018-12-26T02:09:53.346Z,132.47
2018-12-26T02:12:22.369Z,122.77
2018-12-26T02:14:51.613Z,279.90
2018-12-26T02:17:20.849Z,137.17
2018-12-26T02:19:50.075Z,232.80
2018-12-26T02:22:18.981Z,149.10
2018-12-26T02:24:48.303Z,297.13
2018-12-26T02:27:17.297Z,340.43
2018-12-26T02:29:46.243Z,291.93
2018-12-26T02:32:15.434Z,181.60
2018-12-26T02:34:44.294Z,249.70
2018-12-26T02:37:13.218Z,116.20
2018-12-26T02:39:42.155Z,219.90
2018-12-26T02:42:11.710Z,169.83
2018-12-26T02:44:41.055Z,124.37
2018-12-26T02:47:09.910Z,266.43
2018-12-26T02:49:38.921Z,209.97
2018-12-26T02:52:08.517Z,182.00
2018-12-26T02:54:37.690Z,134.33
2018-12-26T02:57:06.726Z,301.20
2018-12-26T02:59:36.305Z,247.83
2018-12-26T03:02:05.913Z,177.77
2018-12-26T03:04:35.017Z,183.80
2018-12-26T03:07:04.026Z,229.40
2018-12-26T03:09:33.201Z,212.10
2018-12-26T03:12:02.118Z,165.50
2018-12-26T03:14:31.313Z,108.00
2018-12-26T03:17:01.261Z,66.47
2018-12-26T03:19:30.511Z,174.43
2018-12-26T03:21:59.449Z,213.83
2018-12-26T03:24:28.830Z,71.50
2018-12-26T03:26:58.206Z,117.83
2018-12-26T03:29:27.372Z,46.97
2018-12-26T03:31:56.224Z,72.07
2018-12-26T03:34:25.702Z,81.43
2018-12-26T03:36:55.327Z,62.17
2018-12-26T03:39:24.923Z,29.90
2018-12-26T03:41:54.526Z,98.47
2018-12-26T03:44:24.220Z,66.00
2018-12-26T03:46:53.547Z,72.87
2018-12-26T03:49:22.589Z,69.07
2018-12-26T03:51:51.963Z,145.67
2018-12-26T03:54:21.650Z,149.90
2018-12-26T03:56:50.971Z,50.00
2018-12-26T03:59:20.766Z,29.80
2018-12-26T04:01:49.992Z,40.33
2018-12-26T04:04:19.092Z,51.07
2018-12-26T04:06:48.280Z,25.90
2018-12-26T04:09:17.445Z,67.80
2018-12-26T04:11:46.445Z,62.90
2018-12-26T04:14:16.029Z,50.83
2018-12-26T04:16:44.884Z,70.47
2018-12-26T04:19:14.623Z,24.20
2018-12-26T04:21:44.067Z,23.07
2018-12-26T04:24:13.895Z,131.23
2018-12-26T04:26:43.027Z,126.60
2018-12-26T04:29:12.251Z,29.10
2018-12-26T04:31:41.472Z,21.37
2018-12-26T04:34:10.328Z,25.93
2018-12-26T04:36:39.168Z,26.83
2018-12-26T04:39:08.759Z,19.60
2018-12-26T04:41:38.577Z,14.20
2018-12-26T04:44:07.775Z,12.20
2018-12-26T04:46:36.870Z,13.00
2018-12-26T04:49:06.047Z,11.03
2018-12-26T04:51:35.675Z,12.40
2018-12-26T04:54:04.699Z,13.23
2018-12-26T04:56:33.569Z,11.33
2018-12-26T04:59:02.829Z,12.97
2018-12-26T05:01:32.372Z,12.97
2018-12-26T05:04:01.694Z,15.23
2018-12-26T05:06:30.891Z,14.00
2018-12-26T05:08:59.734Z,12.03
2018-12-26T05:11:29.000Z,14.70
2018-12-26T05:13:58.597Z,14.63
2018-12-26T05:16:27.661Z,15.33
2018-12-26T05:18:57.380Z,16.97
2018-12-26T05:21:26.680Z,19.17
2018-12-26T05:23:56.007Z,18.07
2018-12-26T05:26:25.197Z,15.67
2018-12-26T05:28:54.092Z,17.83
2018-12-26T05:31:23.265Z,31.20
2018-12-26T05:33:53.088Z,77.23
2018-12-26T05:36:22.205Z,149.50
2018-12-26T05:38:51.097Z,155.40
2018-12-26T05:41:20.336Z,74.33
2018-12-26T05:43:49.758Z,156.10
2018-12-26T05:46:18.621Z,168.30
2018-12-26T05:48:48.112Z,146.07
2018-12-26T05:51:17.211Z,206.97
2018-12-26T05:53:46.305Z,197.10
2018-12-26T05:56:15.551Z,265.27
2018-12-26T05:58:44.425Z,173.60
2018-12-26T06:01:14.288Z,92.10
2018-12-26T06:03:43.376Z,76.63
2018-12-26T06:06:12.549Z,102.43
2018-12-26T06:08:41.764Z,127.33
2018-12-26T06:11:10.607Z,94.23
2018-12-26T06:13:39.540Z,87.83
2018-12-26T06:16:09.391Z,46.80
2018-12-26T06:18:38.329Z,110.53
2018-12-26T06:21:07.448Z,38.23
2018-12-26T06:23:37.226Z,39.27
2018-12-26T06:26:06.160Z,56.77
2018-12-26T06:28:35.478Z,87.00
2018-12-26T06:31:04.388Z,34.63
2018-12-26T06:33:33.915Z,35.27
2018-12-26T06:36:03.488Z,88.77
2018-12-26T06:38:32.356Z,28.77
2018-12-26T06:41:01.202Z,18.47
2018-12-26T06:43:30.666Z,24.67
2018-12-26T06:46:00.137Z,23.00
2018-12-26T06:48:29.586Z,35.17
2018-12-26T06:50:59.102Z,27.80
2018-12-26T06:53:28.248Z,37.57
2018-12-26T06:55:57.694Z,20.03
2018-12-26T06:58:27.175Z,17.03
2018-12-26T07:00:56.437Z,18.73
2018-12-26T07:03:26.204Z,23.50
2018-12-26T07:05:55.385Z,21.37
2018-12-26T07:08:24.593Z,18.93
2018-12-26T07:10:53.469Z,19.23
2018-12-26T07:13:22.932Z,25.13
2018-12-26T07:15:51.801Z,22.20
2018-12-26T07:18:20.781Z,26.90
2018-12-26T07:20:49.608Z,25.13
2018-12-26T07:23:19.475Z,23.30
2018-12-26T07:25:49.210Z,31.07
2018-12-26T07:28:18.368Z,64.33
2018-12-26T07:30:47.658Z,141.97
2018-12-26T07:33:16.602Z,100.77
2018-12-26T07:35:45.920Z,63.70
2018-12-26T07:38:15.131Z,66.97
2018-12-26T07:40:46.330Z,70.63
2018-12-26T07:43:15.429Z,42.50
2018-12-26T07:45:44.855Z,64.27
2018-12-26T07:48:14.026Z,60.10
2018-12-26T07:50:43.302Z,51.30
2018-12-26T07:53:12.247Z,99.20
2018-12-26T07:55:41.434Z,91.87
2018-12-26T07:58:17.598Z,104.57
2018-12-26T08:00:41.661Z,64.40
2018-12-26T08:03:11.352Z,78.43
2018-12-26T08:05:40.446Z,71.07
2018-12-26T08:08:09.831Z,61.80
2018-12-26T08:10:39.382Z,38.73
2018-12-26T08:13:08.647Z,46.80
2018-12-26T08:15:37.576Z,185.60
2018-12-26T08:18:06.646Z,49.10
2018-12-26T08:20:35.484Z,23.83
2018-12-26T08:23:04.595Z,37.80
2018-12-26T08:25:33.744Z,42.23
2018-12-26T08:28:03.252Z,22.80
2018-12-26T08:30:32.776Z,21.00
2018-12-26T08:33:02.628Z,19.63
2018-12-26T08:35:32.196Z,36.77
2018-12-26T08:38:01.419Z,48.27
2018-12-26T08:40:30.869Z,27.10
2018-12-26T08:43:00.077Z,29.60
2018-12-26T08:45:28.923Z,37.83
2018-12-26T08:47:58.084Z,32.00
2018-12-26T08:50:27.278Z,21.37
2018-12-26T08:52:56.176Z,27.07
2018-12-26T08:55:25.529Z,28.63
2018-12-26T08:57:55.020Z,28.00
2018-12-26T09:00:24.540Z,28.50
2018-12-26T09:02:53.659Z,25.30
2018-12-26T09:05:22.605Z,25.23
2018-12-26T09:07:51.766Z,23.53
2018-12-26T09:10:20.877Z,24.53
2018-12-26T09:12:50.293Z,24.40
2018-12-26T09:15:20.076Z,30.40
2018-12-26T09:17:49.804Z,24.93
2018-12-26T09:20:18.820Z,23.20
2018-12-26T09:22:48.087Z,41.97
2018-12-26T09:25:17.261Z,33.47
2018-12-26T09:27:46.459Z,87.07
2018-12-26T09:30:15.649Z,51.60
2018-12-26T09:32:44.821Z,29.83
2018-12-26T09:35:14.180Z,43.97
2018-12-26T09:37:43.485Z,25.63
2018-12-26T09:40:12.753Z,40.57
2018-12-26T09:42:42.461Z,29.60
2018-12-26T09:45:11.397Z,31.63
2018-12-26T09:47:40.768Z,31.23
2018-12-26T09:50:10.090Z,30.43
2018-12-26T09:52:39.523Z,30.30
2018-12-26T09:55:08.449Z,30.97
2018-12-26T09:57:37.910Z,27.67
2018-12-26T10:00:08.454Z,29.93
2018-12-26T10:02:37.943Z,31.07
2018-12-26T10:05:08.133Z,22.77
2018-12-26T10:07:37.360Z,25.77
2018-12-26T10:10:07.184Z,22.00
2018-12-26T10:12:36.360Z,24.17
2018-12-26T10:15:06.496Z,26.43
2018-12-26T10:17:36.762Z,24.50
2018-12-26T10:20:06.133Z,31.20
2018-12-26T10:22:36.027Z,30.67
2018-12-26T10:25:05.283Z,30.10
2018-12-26T10:27:34.468Z,29.90
2018-12-26T10:30:03.722Z,28.67
2018-12-26T10:32:32.915Z,24.80
2018-12-26T10:35:02.128Z,27.83
2018-12-26T10:37:32.033Z,28.07
2018-12-26T10:40:01.957Z,25.07
2018-12-26T10:42:31.339Z,25.77
2018-12-26T10:45:00.958Z,23.53
2018-12-26T10:47:30.288Z,24.03
2018-12-26T10:49:59.883Z,23.77
2018-12-26T10:52:29.168Z,20.27
2018-12-26T10:54:58.585Z,20.47
2018-12-26T10:57:27.942Z,18.63
2018-12-26T10:59:57.088Z,19.77
2018-12-26T11:02:26.276Z,18.63
2018-12-26T11:04:55.404Z,19.53
2018-12-26T11:07:24.555Z,19.87
2018-12-26T11:09:53.668Z,18.97
2018-12-26T11:12:23.290Z,20.13
2018-12-26T11:14:52.486Z,20.43
2018-12-26T11:17:21.598Z,18.60
2018-12-26T11:19:50.688Z,17.83
2018-12-26T11:22:19.972Z,16.30
2018-12-26T11:24:49.492Z,19.20
2018-12-26T11:27:19.716Z,20.77
2018-12-26T11:29:48.960Z,16.87
2018-12-26T11:32:17.883Z,27.07
2018-12-26T11:34:47.261Z,21.23
2018-12-26T11:37:16.972Z,18.50
2018-12-26T11:39:46.735Z,17.20
2018-12-26T11:42:16.322Z,16.43
2018-12-26T11:44:45.587Z,15.63
2018-12-26T11:47:14.786Z,16.43
2018-12-26T11:49:43.890Z,16.10
2018-12-26T11:52:13.325Z,20.53
2018-12-26T11:54:42.180Z,18.07
2018-12-26T11:57:11.509Z,19.47
2018-12-26T11:59:40.776Z,19.37
2018-12-26T12:02:09.961Z,23.07
2018-12-26T12:04:38.801Z,20.03
2018-12-26T12:07:07.793Z,34.57
2018-12-26T12:09:36.785Z,20.83
2018-12-26T12:12:06.001Z,21.37
2018-12-26T12:14:35.295Z,19.37
2018-12-26T12:17:04.595Z,17.77
2018-12-26T12:19:33.627Z,17.67
2018-12-26T12:22:03.199Z,14.60
2018-12-26T12:24:32.423Z,15.17
2018-12-26T12:27:01.285Z,16.57
2018-12-26T12:29:35.921Z,15.50
2018-12-26T12:32:01.196Z,13.97
2018-12-26T12:34:30.553Z,14.00
2018-12-26T12:36:59.824Z,13.73
2018-12-26T12:39:30.039Z,12.73
2018-12-26T12:42:01.383Z,15.57
2018-12-26T12:44:29.679Z,14.27
2018-12-26T12:46:59.066Z,15.53
2018-12-26T12:49:28.285Z,19.10
2018-12-26T12:51:57.919Z,19.43
2018-12-26T12:54:27.396Z,18.10
2018-12-26T12:56:56.896Z,16.67
2018-12-26T12:59:26.429Z,17.90
2018-12-26T13:01:55.409Z,17.70
2018-12-26T13:04:24.602Z,18.57
2018-12-26T13:06:53.899Z,17.33
2018-12-26T13:09:23.421Z,17.20
2018-12-26T13:11:52.975Z,16.53
2018-12-26T13:14:22.250Z,18.13
2018-12-26T13:16:51.840Z,20.33
2018-12-26T13:19:20.752Z,18.30
2018-12-26T13:21:49.624Z,17.30
2018-12-26T13:24:18.927Z,17.97
2018-12-26T13:26:47.774Z,19.50
2018-12-26T13:29:16.632Z,19.37
2018-12-26T13:31:45.532Z,19.60
2018-12-26T13:34:14.394Z,20.60
2018-12-26T13:36:43.592Z,18.77
2018-12-26T13:39:13.065Z,18.47
2018-12-26T13:41:41.911Z,20.27
2018-12-26T13:44:11.720Z,24.53
2018-12-26T13:46:40.921Z,19.20
2018-12-26T13:49:10.128Z,18.40
2018-12-26T13:51:39.597Z,19.00
2018-12-26T13:54:08.861Z,19.37
2018-12-26T13:56:38.078Z,18.90
2018-12-26T13:59:07.586Z,20.87
2018-12-26T14:01:36.791Z,17.67
2018-12-26T14:04:05.789Z,22.03
2018-12-26T14:06:34.729Z,20.33
2018-12-26T14:09:04.265Z,17.97
2018-12-26T14:11:33.497Z,18.90
2018-12-26T14:14:02.833Z,21.53
2018-12-26T14:16:31.691Z,22.77
2018-12-26T14:19:00.649Z,23.50
2018-12-26T14:21:29.934Z,33.13
2018-12-26T14:23:59.268Z,51.03
2018-12-26T14:26:28.776Z,23.30
2018-12-26T14:28:57.990Z,36.40
2018-12-26T14:31:27.044Z,49.27
2018-12-26T14:33:56.249Z,31.40
2018-12-26T14:36:25.445Z,22.47
2018-12-26T14:38:54.568Z,24.63
2018-12-26T14:41:23.742Z,24.80
2018-12-26T14:43:53.087Z,26.70
2018-12-26T14:46:22.268Z,24.17
2018-12-26T14:48:51.120Z,31.90
2018-12-26T14:51:26.340Z,26.37
2018-12-26T14:53:51.603Z,26.40
2018-12-26T14:56:20.448Z,26.23
2018-12-26T14:58:49.857Z,28.60
2018-12-26T15:01:19.608Z,25.17
2018-12-26T15:03:49.256Z,27.50
2018-12-26T15:06:18.720Z,29.07
2018-12-26T15:08:47.627Z,33.07
2018-12-26T15:11:16.661Z,31.57
2018-12-26T15:13:45.525Z,49.03
2018-12-26T15:16:14.856Z,50.60
2018-12-26T15:18:44.987Z,31.17
2018-12-26T15:21:14.129Z,77.00
2018-12-26T15:23:44.023Z,29.43
2018-12-26T15:26:13.686Z,28.90
2018-12-26T15:28:42.984Z,41.63
2018-12-26T15:31:12.146Z,32.93
2018-12-26T15:33:41.172Z,30.60
2018-12-26T15:36:10.850Z,30.70
2018-12-26T15:38:40.171Z,28.70
2018-12-26T15:41:09.636Z,30.90
2018-12-26T15:43:38.878Z,34.57
2018-12-26T15:46:07.814Z,36.93
2018-12-26T15:48:37.789Z,32.13
2018-12-26T15:51:07.067Z,31.43
2018-12-26T15:53:35.915Z,34.87
2018-12-26T15:56:05.040Z,33.90
2018-12-26T15:58:33.982Z,31.10
2018-12-26T16:01:03.726Z,37.93
2018-12-26T16:03:32.895Z,36.33
2018-12-26T16:06:01.822Z,33.70
2018-12-26T16:08:30.843Z,33.83
2018-12-26T16:11:00.478Z,35.70
2018-12-26T16:13:29.850Z,31.77
2018-12-26T16:15:59.160Z,34.10
2018-12-26T16:18:28.974Z,37.93
2018-12-26T16:20:58.354Z,37.33
2018-12-26T16:23:27.830Z,35.90
2018-12-26T16:25:57.398Z,32.67
2018-12-26T16:28:26.691Z,32.50
2018-12-26T16:30:55.955Z,33.43
2018-12-26T16:33:24.809Z,35.17
2018-12-26T16:35:54.107Z,38.90
2018-12-26T16:38:23.669Z,33.73
2018-12-26T16:40:52.808Z,40.77
2018-12-26T16:43:22.489Z,40.57
2018-12-26T16:45:51.556Z,35.20
2018-12-26T16:48:21.115Z,38.27
2018-12-26T16:50:50.466Z,35.37
2018-12-26T16:53:19.340Z,33.97
2018-12-26T16:55:48.592Z,36.13
2018-12-26T16:58:17.468Z,36.80
2018-12-26T17:00:54.812Z,35.80
2018-12-26T17:03:17.835Z,48.47
2018-12-26T17:05:47.117Z,40.83
2018-12-26T17:08:16.329Z,34.13
2018-12-26T17:10:45.644Z,34.03
2018-12-26T17:13:14.508Z,36.40
2018-12-26T17:15:43.706Z,35.67
2018-12-26T17:18:12.744Z,37.07
2018-12-26T17:20:42.190Z,35.03
2018-12-26T17:23:11.470Z,33.47
2018-12-26T17:25:40.924Z,39.00
2018-12-26T17:28:09.967Z,39.40
2018-12-26T17:30:39.543Z,38.17
2018-12-26T17:33:09.319Z,38.20
2018-12-26T17:35:38.241Z,35.27
2018-12-26T17:38:07.866Z,35.83
2018-12-26T17:40:37.153Z,37.27
2018-12-26T17:43:06.103Z,42.17
2018-12-26T17:45:35.751Z,36.40
2018-12-26T17:48:04.781Z,34.17
2018-12-26T17:50:53.246Z,38.77
2018-12-26T17:53:37.631Z,35.37
2018-12-26T17:56:17.518Z,37.43
2018-12-26T17:58:59.056Z,38.37
2018-12-26T18:01:35.972Z,33.00
2018-12-26T18:04:05.262Z,33.73
2018-12-26T18:06:34.664Z,32.47
2018-12-26T18:09:05.411Z,38.37
2018-12-26T18:11:34.926Z,40.47
2018-12-26T18:14:04.617Z,38.83
2018-12-26T18:16:33.645Z,36.47
2018-12-26T18:19:03.137Z,34.43
2018-12-26T18:21:32.776Z,32.23
2018-12-26T18:24:02.396Z,36.80
2018-12-26T18:26:32.892Z,41.03
2018-12-26T18:29:02.530Z,37.63
2018-12-26T18:31:32.218Z,34.63
2018-12-26T18:34:01.677Z,36.67
2018-12-26T18:36:30.631Z,41.53
2018-12-26T18:38:59.852Z,32.87
2018-12-26T18:41:29.081Z,34.03
2018-12-26T18:43:58.381Z,31.20
2018-12-26T18:46:28.117Z,35.23
2018-12-26T18:48:57.494Z,31.23
2018-12-26T18:51:26.605Z,29.40
2018-12-26T18:53:56.614Z,28.67
2018-12-26T18:56:26.470Z,30.83
2018-12-26T18:58:55.759Z,34.03
2018-12-26T19:01:30.612Z,33.47
2018-12-26T19:03:56.572Z,39.67
2018-12-26T19:06:25.525Z,36.20
2018-12-26T19:08:55.317Z,34.03
2018-12-26T19:11:24.984Z,36.73
2018-12-26T19:13:54.285Z,39.63
2018-12-26T19:16:26.657Z,34.83
2018-12-26T19:18:55.579Z,34.23
2018-12-26T19:21:25.526Z,34.53
2018-12-26T19:23:55.049Z,38.97
2018-12-26T19:26:24.285Z,37.17
2018-12-26T19:28:53.224Z,36.20
2018-12-26T19:31:22.477Z,38.70
2018-12-26T19:33:51.648Z,35.40
2018-12-26T19:36:21.185Z,36.30
2018-12-26T19:38:50.367Z,33.07
2018-12-26T19:41:20.012Z,33.83
2018-12-26T19:43:49.411Z,35.83
2018-12-26T19:46:18.597Z,35.67
2018-12-26T19:48:48.218Z,36.33
2018-12-26T19:51:17.624Z,34.27
2018-12-26T19:53:47.224Z,32.70
2018-12-26T19:56:16.725Z,35.03
2018-12-26T19:58:46.253Z,33.37
2018-12-26T20:01:16.028Z,32.73
2018-12-26T20:03:52.320Z,32.37
2018-12-26T20:06:21.574Z,32.53
2018-12-26T20:08:50.542Z,35.80
2018-12-26T20:11:20.104Z,36.30
2018-12-26T20:13:49.724Z,35.47
2018-12-26T20:16:19.041Z,33.33
2018-12-26T20:18:48.100Z,36.57
2018-12-26T20:21:17.617Z,35.07
2018-12-26T20:23:47.791Z,35.30
2018-12-26T20:26:16.830Z,35.97
2018-12-26T20:28:46.756Z,35.53
2018-12-26T20:31:16.045Z,32.93
2018-12-26T20:33:45.656Z,35.97
2018-12-26T20:36:14.784Z,38.50
2018-12-26T20:38:43.626Z,35.57
2018-12-26T20:41:13.151Z,33.43
2018-12-26T20:43:43.115Z,36.20
2018-12-26T20:46:11.975Z,39.63
2018-12-26T20:48:41.544Z,36.43
2018-12-26T20:51:10.487Z,47.10
2018-12-26T20:53:39.433Z,47.10
2018-12-26T20:56:08.729Z,40.50
2018-12-26T20:58:38.259Z,36.50
2018-12-26T21:01:07.631Z,38.90
2018-12-26T21:03:37.033Z,40.93
2018-12-26T21:06:06.527Z,37.43
2018-12-26T21:08:35.978Z,41.37
2018-12-26T21:11:05.252Z,38.20
2018-12-26T21:13:34.352Z,49.10
2018-12-26T21:16:03.644Z,46.57
2018-12-26T21:18:32.584Z,42.40
2018-12-26T21:21:01.517Z,38.20
2018-12-26T21:23:30.965Z,40.50
2018-12-26T21:25:59.906Z,38.37
2018-12-26T21:28:29.338Z,36.37
2018-12-26T21:30:58.389Z,39.50
2018-12-26T21:33:27.356Z,36.97
2018-12-26T21:35:56.861Z,43.40
2018-12-26T21:38:25.721Z,44.07
2018-12-26T21:40:54.637Z,39.47
2018-12-26T21:43:23.558Z,40.87
2018-12-26T21:45:52.837Z,46.47
2018-12-26T21:48:21.901Z,40.40
2018-12-26T21:50:51.078Z,41.60
2018-12-26T21:53:20.556Z,43.17
2018-12-26T21:55:49.940Z,41.97
2018-12-26T21:58:19.464Z,42.93
2018-12-26T22:00:48.948Z,43.40
2018-12-26T22:03:17.924Z,44.60
2018-12-26T22:05:46.778Z,40.33
2018-12-26T22:08:15.631Z,41.23
2018-12-26T22:10:45.044Z,41.87
2018-12-26T22:13:14.538Z,46.90
2018-12-26T22:15:44.040Z,41.53
2018-12-26T22:18:13.244Z,42.37
2018-12-26T22:20:42.432Z,42.13
2018-12-26T22:23:11.619Z,46.50
2018-12-26T22:25:40.900Z,44.27
2018-12-26T22:28:10.320Z,43.37
2018-12-26T22:30:39.251Z,43.33
2018-12-26T22:33:08.725Z,46.50
2018-12-26T22:35:37.593Z,41.87
2018-12-26T22:38:07.488Z,41.43
2018-12-26T22:40:36.350Z,43.43
2018-12-26T22:43:05.625Z,42.27
2018-12-26T22:45:34.478Z,39.87
2018-12-26T22:48:03.647Z,42.33
2018-12-26T22:50:32.592Z,48.50
2018-12-26T22:53:01.822Z,49.27
2018-12-26T22:55:31.321Z,41.60
2018-12-26T22:58:00.169Z,42.57
2018-12-26T23:00:40.973Z,71.67
2018-12-26T23:03:10.493Z,46.40
2018-12-26T23:05:39.918Z,45.13
2018-12-26T23:08:09.197Z,51.57
2018-12-26T23:10:38.393Z,44.47
2018-12-26T23:13:07.495Z,47.53
2018-12-26T23:15:37.313Z,47.43
2018-12-26T23:18:06.504Z,45.93
2018-12-26T23:20:35.613Z,53.90
2018-12-26T23:23:05.106Z,46.70
2018-12-26T23:25:34.272Z,46.83
2018-12-26T23:28:03.511Z,45.33
2018-12-26T23:30:32.991Z,46.57
2018-12-26T23:33:01.928Z,41.50
2018-12-26T23:35:31.412Z,45.10
2018-12-26T23:38:00.269Z,41.73
2018-12-26T23:40:29.108Z,34.47
2018-12-26T23:42:58.041Z,40.20
2018-12-26T23:45:26.891Z,38.83
2018-12-26T23:47:56.399Z,43.10
2018-12-26T23:50:26.004Z,41.63
2018-12-26T23:52:54.940Z,37.97
2018-12-26T23:55:24.132Z,39.63
2018-12-26T23:57:53.322Z,40.13
